sensor_id;sensor_type;location;lat;lon;timestamp;P1;durP1;ratioP1;P2;durP2;ratioP2
66669;SDS011;53568;52.164;4.472;2023-12-07T00:00:02;11.73;;;11.73;;
66669;SDS011;53568;52.164;4.472;2023-12-07T00:02:28;12.20;;;12.20;;
66669;SDS011;53568;52.164;4.472;2023-12-07T00:04:56;12.14;;;12.14;;
66669;SDS011;53568;52.164;4.472;2023-12-07T00:07:21;11.54;;;11.53;;
66669;SDS011;53568;52.164;4.472;2023-12-07T00:09:47;11.96;;;11.96;;
66669;SDS011;53568;52.164;4.472;2023-12-07T00:12:12;12.32;;;12.32;;
66669;SDS011;53568;52.164;4.472;2023-12-07T00:14:38;11.76;;;11.76;;
66669;SDS011;53568;52.164;4.472;2023-12-07T00:17:03;11.70;;;11.70;;
66669;SDS011;53568;52.164;4.472;2023-12-07T00:19:29;11.62;;;11.62;;
66669;SDS011;53568;52.164;4.472;2023-12-07T00:21:54;11.77;;;11.77;;
66669;SDS011;53568;52.164;4.472;2023-12-07T00:24:20;11.36;;;11.36;;
66669;SDS011;53568;52.164;4.472;2023-12-07T00:26:45;10.98;;;10.98;;
66669;SDS011;53568;52.164;4.472;2023-12-07T00:29:11;10.61;;;10.61;;
66669;SDS011;53568;52.164;4.472;2023-12-07T00:31:37;11.05;;;11.05;;
66669;SDS011;53568;52.164;4.472;2023-12-07T00:34:02;10.79;;;10.79;;
66669;SDS011;53568;52.164;4.472;2023-12-07T00:36:28;10.96;;;10.96;;
66669;SDS011;53568;52.164;4.472;2023-12-07T00:38:53;10.92;;;10.92;;
66669;SDS011;53568;52.164;4.472;2023-12-07T00:41:19;10.90;;;10.90;;
66669;SDS011;53568;52.164;4.472;2023-12-07T00:43:44;11.20;;;11.20;;
66669;SDS011;53568;52.164;4.472;2023-12-07T00:46:10;11.55;;;11.52;;
66669;SDS011;53568;52.164;4.472;2023-12-07T00:48:36;11.42;;;11.42;;
66669;SDS011;53568;52.164;4.472;2023-12-07T00:51:01;11.50;;;11.50;;
66669;SDS011;53568;52.164;4.472;2023-12-07T00:53:27;11.85;;;11.85;;
66669;SDS011;53568;52.164;4.472;2023-12-07T00:55:53;11.81;;;11.81;;
66669;SDS011;53568;52.164;4.472;2023-12-07T00:58:18;11.66;;;11.66;;
66669;SDS011;53568;52.164;4.472;2023-12-07T01:00:44;12.24;;;12.24;;
66669;SDS011;53568;52.164;4.472;2023-12-07T01:03:09;12.04;;;12.01;;
66669;SDS011;53568;52.164;4.472;2023-12-07T01:05:35;11.94;;;11.90;;
66669;SDS011;53568;52.164;4.472;2023-12-07T01:08:01;12.05;;;12.03;;
66669;SDS011;53568;52.164;4.472;2023-12-07T01:10:26;11.61;;;11.47;;
66669;SDS011;53568;52.164;4.472;2023-12-07T01:12:52;11.66;;;11.63;;
66669;SDS011;53568;52.164;4.472;2023-12-07T01:15:17;11.36;;;11.36;;
66669;SDS011;53568;52.164;4.472;2023-12-07T01:17:43;11.68;;;11.68;;
66669;SDS011;53568;52.164;4.472;2023-12-07T01:20:08;11.88;;;11.84;;
66669;SDS011;53568;52.164;4.472;2023-12-07T01:22:41;11.96;;;11.96;;
66669;SDS011;53568;52.164;4.472;2023-12-07T01:25:07;12.05;;;11.93;;
66669;SDS011;53568;52.164;4.472;2023-12-07T01:27:33;12.04;;;12.04;;
66669;SDS011;53568;52.164;4.472;2023-12-07T01:29:59;12.19;;;12.19;;
66669;SDS011;53568;52.164;4.472;2023-12-07T01:32:24;12.22;;;12.22;;
66669;SDS011;53568;52.164;4.472;2023-12-07T01:34:50;12.22;;;12.22;;
66669;SDS011;53568;52.164;4.472;2023-12-07T01:37:15;13.03;;;13.02;;
66669;SDS011;53568;52.164;4.472;2023-12-07T01:39:41;12.92;;;12.90;;
66669;SDS011;53568;52.164;4.472;2023-12-07T01:42:08;13.18;;;13.15;;
66669;SDS011;53568;52.164;4.472;2023-12-07T01:44:34;13.22;;;13.22;;
66669;SDS011;53568;52.164;4.472;2023-12-07T01:47:00;13.44;;;13.44;;
66669;SDS011;53568;52.164;4.472;2023-12-07T01:49:27;13.17;;;13.17;;
66669;SDS011;53568;52.164;4.472;2023-12-07T01:51:54;13.36;;;13.36;;
66669;SDS011;53568;52.164;4.472;2023-12-07T01:54:20;12.72;;;12.72;;
66669;SDS011;53568;52.164;4.472;2023-12-07T01:56:46;13.00;;;13.00;;
66669;SDS011;53568;52.164;4.472;2023-12-07T01:59:12;13.42;;;13.42;;
66669;SDS011;53568;52.164;4.472;2023-12-07T02:01:37;14.45;;;14.38;;
66669;SDS011;53568;52.164;4.472;2023-12-07T02:04:03;13.85;;;13.85;;
66669;SDS011;53568;52.164;4.472;2023-12-07T02:06:29;14.05;;;14.04;;
66669;SDS011;53568;52.164;4.472;2023-12-07T02:08:55;14.14;;;14.10;;
66669;SDS011;53568;52.164;4.472;2023-12-07T02:11:21;14.44;;;14.44;;
66669;SDS011;53568;52.164;4.472;2023-12-07T02:13:46;14.23;;;14.23;;
66669;SDS011;53568;52.164;4.472;2023-12-07T02:16:33;14.87;;;14.87;;
66669;SDS011;53568;52.164;4.472;2023-12-07T02:21:50;14.59;;;14.59;;
66669;SDS011;53568;52.164;4.472;2023-12-07T02:24:26;14.89;;;14.89;;
66669;SDS011;53568;52.164;4.472;2023-12-07T02:26:53;14.93;;;14.93;;
66669;SDS011;53568;52.164;4.472;2023-12-07T02:29:19;15.12;;;14.99;;
66669;SDS011;53568;52.164;4.472;2023-12-07T02:31:45;14.69;;;14.68;;
66669;SDS011;53568;52.164;4.472;2023-12-07T02:34:11;14.84;;;14.83;;
66669;SDS011;53568;52.164;4.472;2023-12-07T02:36:38;14.12;;;14.12;;
66669;SDS011;53568;52.164;4.472;2023-12-07T02:39:05;14.22;;;14.22;;
66669;SDS011;53568;52.164;4.472;2023-12-07T02:41:34;14.36;;;14.36;;
66669;SDS011;53568;52.164;4.472;2023-12-07T02:44:02;14.46;;;14.46;;
66669;SDS011;53568;52.164;4.472;2023-12-07T02:46:28;14.75;;;14.75;;
66669;SDS011;53568;52.164;4.472;2023-12-07T02:48:54;15.04;;;15.00;;
66669;SDS011;53568;52.164;4.472;2023-12-07T02:51:19;14.53;;;14.52;;
66669;SDS011;53568;52.164;4.472;2023-12-07T02:53:45;14.97;;;14.94;;
66669;SDS011;53568;52.164;4.472;2023-12-07T02:56:10;15.05;;;14.99;;
66669;SDS011;53568;52.164;4.472;2023-12-07T02:58:36;14.27;;;14.27;;
66669;SDS011;53568;52.164;4.472;2023-12-07T03:01:01;14.63;;;14.63;;
66669;SDS011;53568;52.164;4.472;2023-12-07T03:03:27;14.57;;;14.57;;
66669;SDS011;53568;52.164;4.472;2023-12-07T03:05:52;15.32;;;15.32;;
66669;SDS011;53568;52.164;4.472;2023-12-07T03:08:18;14.86;;;14.86;;
66669;SDS011;53568;52.164;4.472;2023-12-07T03:10:43;14.68;;;14.63;;
66669;SDS011;53568;52.164;4.472;2023-12-07T03:13:09;14.70;;;14.68;;
66669;SDS011;53568;52.164;4.472;2023-12-07T03:15:34;14.77;;;14.75;;
66669;SDS011;53568;52.164;4.472;2023-12-07T03:18:00;15.22;;;15.22;;
66669;SDS011;53568;52.164;4.472;2023-12-07T03:20:25;15.37;;;15.32;;
66669;SDS011;53568;52.164;4.472;2023-12-07T03:22:51;15.86;;;15.72;;
66669;SDS011;53568;52.164;4.472;2023-12-07T03:25:16;15.13;;;15.13;;
66669;SDS011;53568;52.164;4.472;2023-12-07T03:27:42;15.37;;;15.34;;
66669;SDS011;53568;52.164;4.472;2023-12-07T03:30:08;15.19;;;15.16;;
66669;SDS011;53568;52.164;4.472;2023-12-07T03:32:33;15.09;;;15.01;;
66669;SDS011;53568;52.164;4.472;2023-12-07T03:34:59;15.55;;;15.53;;
66669;SDS011;53568;52.164;4.472;2023-12-07T03:37:24;14.91;;;14.90;;
66669;SDS011;53568;52.164;4.472;2023-12-07T03:39:50;14.90;;;14.86;;
66669;SDS011;53568;52.164;4.472;2023-12-07T03:42:15;14.65;;;14.62;;
66669;SDS011;53568;52.164;4.472;2023-12-07T03:44:41;15.42;;;15.37;;
66669;SDS011;53568;52.164;4.472;2023-12-07T03:47:07;14.64;;;14.64;;
66669;SDS011;53568;52.164;4.472;2023-12-07T03:49:33;14.95;;;14.94;;
66669;SDS011;53568;52.164;4.472;2023-12-07T03:51:59;15.24;;;15.24;;
66669;SDS011;53568;52.164;4.472;2023-12-07T03:54:24;14.98;;;14.97;;
66669;SDS011;53568;52.164;4.472;2023-12-07T03:56:50;14.97;;;14.97;;
66669;SDS011;53568;52.164;4.472;2023-12-07T03:59:15;15.66;;;15.66;;
66669;SDS011;53568;52.164;4.472;2023-12-07T04:01:41;15.33;;;15.33;;
66669;SDS011;53568;52.164;4.472;2023-12-07T04:04:06;15.04;;;15.03;;
66669;SDS011;53568;52.164;4.472;2023-12-07T04:06:32;15.43;;;15.42;;
66669;SDS011;53568;52.164;4.472;2023-12-07T04:08:58;15.19;;;15.19;;
66669;SDS011;53568;52.164;4.472;2023-12-07T04:11:23;15.42;;;15.39;;
66669;SDS011;53568;52.164;4.472;2023-12-07T04:13:49;15.66;;;15.65;;
66669;SDS011;53568;52.164;4.472;2023-12-07T04:16:15;15.02;;;15.02;;
66669;SDS011;53568;52.164;4.472;2023-12-07T04:18:41;15.36;;;15.33;;
66669;SDS011;53568;52.164;4.472;2023-12-07T04:21:07;15.74;;;15.56;;
66669;SDS011;53568;52.164;4.472;2023-12-07T04:23:32;15.21;;;15.20;;
66669;SDS011;53568;52.164;4.472;2023-12-07T04:25:58;15.71;;;15.65;;
66669;SDS011;53568;52.164;4.472;2023-12-07T04:28:24;16.27;;;16.24;;
66669;SDS011;53568;52.164;4.472;2023-12-07T04:30:50;16.51;;;16.49;;
66669;SDS011;53568;52.164;4.472;2023-12-07T04:33:15;16.53;;;16.52;;
66669;SDS011;53568;52.164;4.472;2023-12-07T04:35:41;16.99;;;16.96;;
66669;SDS011;53568;52.164;4.472;2023-12-07T04:38:06;17.44;;;17.29;;
66669;SDS011;53568;52.164;4.472;2023-12-07T04:40:32;18.02;;;17.98;;
66669;SDS011;53568;52.164;4.472;2023-12-07T04:42:57;18.20;;;18.17;;
66669;SDS011;53568;52.164;4.472;2023-12-07T04:45:23;17.72;;;17.72;;
66669;SDS011;53568;52.164;4.472;2023-12-07T04:47:48;18.07;;;18.05;;
66669;SDS011;53568;52.164;4.472;2023-12-07T04:50:14;17.94;;;17.91;;
66669;SDS011;53568;52.164;4.472;2023-12-07T04:52:40;18.27;;;18.26;;
66669;SDS011;53568;52.164;4.472;2023-12-07T04:55:05;18.55;;;18.55;;
66669;SDS011;53568;52.164;4.472;2023-12-07T04:57:33;19.01;;;19.01;;
66669;SDS011;53568;52.164;4.472;2023-12-07T05:00:04;19.01;;;19.00;;
66669;SDS011;53568;52.164;4.472;2023-12-07T05:02:35;18.34;;;18.32;;
66669;SDS011;53568;52.164;4.472;2023-12-07T05:05:01;19.10;;;19.09;;
66669;SDS011;53568;52.164;4.472;2023-12-07T05:07:27;19.60;;;19.56;;
66669;SDS011;53568;52.164;4.472;2023-12-07T05:09:52;19.37;;;19.34;;
66669;SDS011;53568;52.164;4.472;2023-12-07T05:12:18;20.49;;;20.45;;
66669;SDS011;53568;52.164;4.472;2023-12-07T05:14:43;20.07;;;20.05;;
66669;SDS011;53568;52.164;4.472;2023-12-07T05:17:09;21.20;;;21.17;;
66669;SDS011;53568;52.164;4.472;2023-12-07T05:19:34;21.99;;;21.74;;
66669;SDS011;53568;52.164;4.472;2023-12-07T05:22:00;23.31;;;23.26;;
66669;SDS011;53568;52.164;4.472;2023-12-07T05:24:26;24.83;;;24.77;;
66669;SDS011;53568;52.164;4.472;2023-12-07T05:26:52;26.53;;;26.20;;
66669;SDS011;53568;52.164;4.472;2023-12-07T05:29:18;30.40;;;29.98;;
66669;SDS011;53568;52.164;4.472;2023-12-07T05:31:44;31.73;;;31.17;;
66669;SDS011;53568;52.164;4.472;2023-12-07T05:34:09;32.96;;;32.34;;
66669;SDS011;53568;52.164;4.472;2023-12-07T05:36:36;35.22;;;34.65;;
66669;SDS011;53568;52.164;4.472;2023-12-07T05:39:01;36.90;;;36.00;;
66669;SDS011;53568;52.164;4.472;2023-12-07T05:41:27;35.92;;;35.20;;
66669;SDS011;53568;52.164;4.472;2023-12-07T05:43:53;36.48;;;35.49;;
66669;SDS011;53568;52.164;4.472;2023-12-07T05:46:19;37.63;;;36.46;;
66669;SDS011;53568;52.164;4.472;2023-12-07T05:48:45;37.33;;;36.14;;
66669;SDS011;53568;52.164;4.472;2023-12-07T05:51:13;38.46;;;37.08;;
66669;SDS011;53568;52.164;4.472;2023-12-07T05:53:41;38.16;;;37.02;;
66669;SDS011;53568;52.164;4.472;2023-12-07T05:56:06;38.91;;;37.42;;
66669;SDS011;53568;52.164;4.472;2023-12-07T05:58:32;37.10;;;35.62;;
66669;SDS011;53568;52.164;4.472;2023-12-07T06:00:58;33.76;;;32.84;;
66669;SDS011;53568;52.164;4.472;2023-12-07T06:03:25;33.04;;;32.28;;
66669;SDS011;53568;52.164;4.472;2023-12-07T06:05:51;33.01;;;32.06;;
66669;SDS011;53568;52.164;4.472;2023-12-07T06:08:17;32.97;;;32.08;;
66669;SDS011;53568;52.164;4.472;2023-12-07T06:10:43;32.22;;;31.24;;
66669;SDS011;53568;52.164;4.472;2023-12-07T06:13:08;32.41;;;31.66;;
66669;SDS011;53568;52.164;4.472;2023-12-07T06:15:34;36.67;;;34.71;;
66669;SDS011;53568;52.164;4.472;2023-12-07T06:17:59;31.59;;;30.57;;
66669;SDS011;53568;52.164;4.472;2023-12-07T06:20:25;33.24;;;31.92;;
66669;SDS011;53568;52.164;4.472;2023-12-07T06:22:51;33.61;;;32.07;;
66669;SDS011;53568;52.164;4.472;2023-12-07T06:25:17;30.98;;;30.11;;
66669;SDS011;53568;52.164;4.472;2023-12-07T06:27:42;30.81;;;30.11;;
66669;SDS011;53568;52.164;4.472;2023-12-07T06:30:09;31.08;;;29.99;;
66669;SDS011;53568;52.164;4.472;2023-12-07T06:32:36;32.53;;;31.08;;
66669;SDS011;53568;52.164;4.472;2023-12-07T06:35:02;32.53;;;31.19;;
66669;SDS011;53568;52.164;4.472;2023-12-07T06:37:29;31.57;;;30.25;;
66669;SDS011;53568;52.164;4.472;2023-12-07T06:39:55;34.08;;;32.32;;
66669;SDS011;53568;52.164;4.472;2023-12-07T06:42:20;32.49;;;31.61;;
66669;SDS011;53568;52.164;4.472;2023-12-07T06:44:46;33.52;;;32.35;;
66669;SDS011;53568;52.164;4.472;2023-12-07T06:47:13;32.84;;;31.62;;
66669;SDS011;53568;52.164;4.472;2023-12-07T06:49:39;32.57;;;31.51;;
66669;SDS011;53568;52.164;4.472;2023-12-07T06:52:04;34.39;;;33.00;;
66669;SDS011;53568;52.164;4.472;2023-12-07T06:54:30;33.24;;;32.12;;
66669;SDS011;53568;52.164;4.472;2023-12-07T06:56:56;32.55;;;31.40;;
66669;SDS011;53568;52.164;4.472;2023-12-07T06:59:21;33.01;;;31.47;;
66669;SDS011;53568;52.164;4.472;2023-12-07T07:01:47;30.05;;;29.16;;
66669;SDS011;53568;52.164;4.472;2023-12-07T07:04:12;28.32;;;27.69;;
66669;SDS011;53568;52.164;4.472;2023-12-07T07:06:39;28.93;;;28.00;;
66669;SDS011;53568;52.164;4.472;2023-12-07T07:09:05;30.98;;;29.70;;
66669;SDS011;53568;52.164;4.472;2023-12-07T07:11:31;30.88;;;29.47;;
66669;SDS011;53568;52.164;4.472;2023-12-07T07:13:56;34.55;;;31.88;;
66669;SDS011;53568;52.164;4.472;2023-12-07T07:16:22;28.75;;;27.70;;
66669;SDS011;53568;52.164;4.472;2023-12-07T07:18:47;30.48;;;28.62;;
66669;SDS011;53568;52.164;4.472;2023-12-07T07:21:13;30.67;;;28.00;;
66669;SDS011;53568;52.164;4.472;2023-12-07T07:23:38;26.77;;;25.61;;
66669;SDS011;53568;52.164;4.472;2023-12-07T07:26:04;26.13;;;25.08;;
66669;SDS011;53568;52.164;4.472;2023-12-07T07:28:29;26.30;;;25.17;;
66669;SDS011;53568;52.164;4.472;2023-12-07T07:30:55;26.31;;;25.53;;
66669;SDS011;53568;52.164;4.472;2023-12-07T07:33:21;27.60;;;26.27;;
66669;SDS011;53568;52.164;4.472;2023-12-07T07:35:46;29.30;;;27.53;;
66669;SDS011;53568;52.164;4.472;2023-12-07T07:38:12;28.97;;;27.09;;
66669;SDS011;53568;52.164;4.472;2023-12-07T07:40:37;29.03;;;27.05;;
66669;SDS011;53568;52.164;4.472;2023-12-07T07:43:03;28.08;;;26.32;;
66669;SDS011;53568;52.164;4.472;2023-12-07T07:45:28;28.52;;;26.47;;
66669;SDS011;53568;52.164;4.472;2023-12-07T07:47:54;27.36;;;25.33;;
66669;SDS011;53568;52.164;4.472;2023-12-07T07:50:19;24.29;;;23.26;;
66669;SDS011;53568;52.164;4.472;2023-12-07T07:52:45;24.43;;;22.60;;
66669;SDS011;53568;52.164;4.472;2023-12-07T07:55:10;23.85;;;21.91;;
66669;SDS011;53568;52.164;4.472;2023-12-07T07:57:37;25.52;;;23.15;;
66669;SDS011;53568;52.164;4.472;2023-12-07T08:00:02;24.22;;;22.43;;
66669;SDS011;53568;52.164;4.472;2023-12-07T08:02:30;24.79;;;22.78;;
66669;SDS011;53568;52.164;4.472;2023-12-07T08:04:56;24.50;;;22.32;;
66669;SDS011;53568;52.164;4.472;2023-12-07T08:07:22;22.70;;;20.91;;
66669;SDS011;53568;52.164;4.472;2023-12-07T08:09:47;22.43;;;20.48;;
66669;SDS011;53568;52.164;4.472;2023-12-07T08:12:13;24.15;;;21.66;;
66669;SDS011;53568;52.164;4.472;2023-12-07T08:14:38;23.43;;;21.12;;
66669;SDS011;53568;52.164;4.472;2023-12-07T08:17:04;23.26;;;21.26;;
66669;SDS011;53568;52.164;4.472;2023-12-07T08:19:30;23.22;;;21.01;;
66669;SDS011;53568;52.164;4.472;2023-12-07T08:21:56;24.18;;;21.59;;
66669;SDS011;53568;52.164;4.472;2023-12-07T08:24:22;24.29;;;21.82;;
66669;SDS011;53568;52.164;4.472;2023-12-07T08:26:47;24.19;;;21.80;;
66669;SDS011;53568;52.164;4.472;2023-12-07T08:29:13;23.99;;;21.75;;
66669;SDS011;53568;52.164;4.472;2023-12-07T08:31:40;23.29;;;21.62;;
66669;SDS011;53568;52.164;4.472;2023-12-07T08:34:05;24.66;;;22.54;;
66669;SDS011;53568;52.164;4.472;2023-12-07T08:36:31;24.41;;;22.10;;
66669;SDS011;53568;52.164;4.472;2023-12-07T08:38:57;23.15;;;21.29;;
66669;SDS011;53568;52.164;4.472;2023-12-07T08:41:22;25.46;;;23.19;;
66669;SDS011;53568;52.164;4.472;2023-12-07T08:43:48;25.03;;;22.64;;
66669;SDS011;53568;52.164;4.472;2023-12-07T08:46:14;25.22;;;22.87;;
66669;SDS011;53568;52.164;4.472;2023-12-07T08:48:39;28.53;;;24.97;;
66669;SDS011;53568;52.164;4.472;2023-12-07T08:51:05;26.59;;;23.60;;
66669;SDS011;53568;52.164;4.472;2023-12-07T08:53:31;31.52;;;26.47;;
66669;SDS011;53568;52.164;4.472;2023-12-07T08:55:56;25.51;;;22.83;;
66669;SDS011;53568;52.164;4.472;2023-12-07T08:58:22;26.62;;;23.42;;
66669;SDS011;53568;52.164;4.472;2023-12-07T09:00:48;28.13;;;23.95;;
66669;SDS011;53568;52.164;4.472;2023-12-07T09:03:14;26.52;;;23.42;;
66669;SDS011;53568;52.164;4.472;2023-12-07T09:05:39;27.91;;;24.07;;
66669;SDS011;53568;52.164;4.472;2023-12-07T09:08:05;26.14;;;22.83;;
66669;SDS011;53568;52.164;4.472;2023-12-07T09:10:31;25.68;;;22.78;;
66669;SDS011;53568;52.164;4.472;2023-12-07T09:12:57;27.07;;;23.51;;
66669;SDS011;53568;52.164;4.472;2023-12-07T09:15:23;24.18;;;21.69;;
66669;SDS011;53568;52.164;4.472;2023-12-07T09:17:48;22.79;;;20.84;;
66669;SDS011;53568;52.164;4.472;2023-12-07T09:20:14;22.21;;;20.15;;
66669;SDS011;53568;52.164;4.472;2023-12-07T09:22:40;22.22;;;20.30;;
66669;SDS011;53568;52.164;4.472;2023-12-07T09:25:08;23.15;;;20.72;;
66669;SDS011;53568;52.164;4.472;2023-12-07T09:27:34;23.38;;;20.75;;
66669;SDS011;53568;52.164;4.472;2023-12-07T09:30:01;24.14;;;21.43;;
66669;SDS011;53568;52.164;4.472;2023-12-07T09:32:26;24.89;;;21.82;;
66669;SDS011;53568;52.164;4.472;2023-12-07T09:34:53;25.76;;;22.58;;
66669;SDS011;53568;52.164;4.472;2023-12-07T09:37:19;26.32;;;23.10;;
66669;SDS011;53568;52.164;4.472;2023-12-07T09:39:45;26.96;;;23.37;;
66669;SDS011;53568;52.164;4.472;2023-12-07T09:42:10;27.52;;;23.93;;
66669;SDS011;53568;52.164;4.472;2023-12-07T09:44:36;26.96;;;23.80;;
66669;SDS011;53568;52.164;4.472;2023-12-07T09:47:02;28.41;;;24.47;;
66669;SDS011;53568;52.164;4.472;2023-12-07T09:49:29;31.26;;;26.39;;
66669;SDS011;53568;52.164;4.472;2023-12-07T09:51:55;30.18;;;25.65;;
66669;SDS011;53568;52.164;4.472;2023-12-07T09:54:23;29.84;;;25.67;;
66669;SDS011;53568;52.164;4.472;2023-12-07T09:56:51;32.73;;;27.42;;
66669;SDS011;53568;52.164;4.472;2023-12-07T09:59:19;32.94;;;27.49;;
66669;SDS011;53568;52.164;4.472;2023-12-07T10:01:45;32.65;;;27.02;;
66669;SDS011;53568;52.164;4.472;2023-12-07T10:04:20;33.13;;;27.61;;
66669;SDS011;53568;52.164;4.472;2023-12-07T10:06:49;34.70;;;28.52;;
66669;SDS011;53568;52.164;4.472;2023-12-07T10:09:15;34.60;;;28.33;;
66669;SDS011;53568;52.164;4.472;2023-12-07T10:11:41;35.98;;;29.57;;
66669;SDS011;53568;52.164;4.472;2023-12-07T10:14:07;35.52;;;29.54;;
66669;SDS011;53568;52.164;4.472;2023-12-07T10:16:33;36.93;;;30.44;;
66669;SDS011;53568;52.164;4.472;2023-12-07T10:19:14;39.41;;;32.42;;
66669;SDS011;53568;52.164;4.472;2023-12-07T10:21:44;40.80;;;32.83;;
66669;SDS011;53568;52.164;4.472;2023-12-07T10:24:10;40.46;;;33.11;;
66669;SDS011;53568;52.164;4.472;2023-12-07T10:26:37;43.70;;;35.04;;
66669;SDS011;53568;52.164;4.472;2023-12-07T10:29:04;44.31;;;35.42;;
66669;SDS011;53568;52.164;4.472;2023-12-07T10:31:31;42.32;;;34.43;;
66669;SDS011;53568;52.164;4.472;2023-12-07T10:33:58;43.96;;;35.43;;
66669;SDS011;53568;52.164;4.472;2023-12-07T10:36:24;44.01;;;35.63;;
66669;SDS011;53568;52.164;4.472;2023-12-07T10:38:50;44.55;;;35.55;;
66669;SDS011;53568;52.164;4.472;2023-12-07T10:41:16;43.59;;;35.69;;
66669;SDS011;53568;52.164;4.472;2023-12-07T10:43:44;41.05;;;34.06;;
66669;SDS011;53568;52.164;4.472;2023-12-07T10:46:16;41.23;;;34.21;;
66669;SDS011;53568;52.164;4.472;2023-12-07T10:48:45;43.47;;;35.74;;
66669;SDS011;53568;52.164;4.472;2023-12-07T10:51:17;43.23;;;35.08;;
66669;SDS011;53568;52.164;4.472;2023-12-07T10:53:53;41.29;;;34.40;;
66669;SDS011;53568;52.164;4.472;2023-12-07T10:56:39;38.49;;;32.90;;
66669;SDS011;53568;52.164;4.472;2023-12-07T10:59:11;40.17;;;33.55;;
66669;SDS011;53568;52.164;4.472;2023-12-07T11:01:41;41.68;;;34.17;;
66669;SDS011;53568;52.164;4.472;2023-12-07T11:04:11;39.01;;;32.73;;
66669;SDS011;53568;52.164;4.472;2023-12-07T11:06:39;38.43;;;32.66;;
66669;SDS011;53568;52.164;4.472;2023-12-07T11:09:07;36.76;;;31.42;;
66669;SDS011;53568;52.164;4.472;2023-12-07T11:11:52;35.48;;;31.06;;
66669;SDS011;53568;52.164;4.472;2023-12-07T11:14:26;34.85;;;30.46;;
66669;SDS011;53568;52.164;4.472;2023-12-07T11:16:52;35.14;;;30.41;;
66669;SDS011;53568;52.164;4.472;2023-12-07T11:22:05;33.30;;;29.83;;
66669;SDS011;53568;52.164;4.472;2023-12-07T11:24:32;34.07;;;30.25;;
66669;SDS011;53568;52.164;4.472;2023-12-07T11:26:58;32.45;;;29.44;;
66669;SDS011;53568;52.164;4.472;2023-12-07T11:29:24;32.91;;;29.81;;
66669;SDS011;53568;52.164;4.472;2023-12-07T11:31:51;31.14;;;28.77;;
66669;SDS011;53568;52.164;4.472;2023-12-07T11:34:36;31.75;;;29.07;;
66669;SDS011;53568;52.164;4.472;2023-12-07T11:37:06;31.31;;;29.02;;
66669;SDS011;53568;52.164;4.472;2023-12-07T11:39:35;31.27;;;28.95;;
66669;SDS011;53568;52.164;4.472;2023-12-07T11:42:12;30.56;;;28.40;;
66669;SDS011;53568;52.164;4.472;2023-12-07T11:44:42;30.33;;;28.56;;
66669;SDS011;53568;52.164;4.472;2023-12-07T11:47:09;31.97;;;29.66;;
66669;SDS011;53568;52.164;4.472;2023-12-07T11:49:42;30.90;;;28.74;;
66669;SDS011;53568;52.164;4.472;2023-12-07T11:52:15;31.38;;;28.56;;
66669;SDS011;53568;52.164;4.472;2023-12-07T11:54:47;30.19;;;28.22;;
66669;SDS011;53568;52.164;4.472;2023-12-07T11:57:15;29.91;;;28.05;;
66669;SDS011;53568;52.164;4.472;2023-12-07T11:59:41;29.06;;;27.37;;
66669;SDS011;53568;52.164;4.472;2023-12-07T12:02:12;28.73;;;27.08;;
66669;SDS011;53568;52.164;4.472;2023-12-07T12:04:42;28.61;;;27.23;;
66669;SDS011;53568;52.164;4.472;2023-12-07T12:07:08;28.17;;;26.74;;
66669;SDS011;53568;52.164;4.472;2023-12-07T12:09:34;28.01;;;26.71;;
66669;SDS011;53568;52.164;4.472;2023-12-07T12:11:59;27.88;;;26.79;;
66669;SDS011;53568;52.164;4.472;2023-12-07T12:14:25;29.49;;;27.78;;
66669;SDS011;53568;52.164;4.472;2023-12-07T12:16:52;29.93;;;28.39;;
66669;SDS011;53568;52.164;4.472;2023-12-07T12:19:18;31.71;;;29.62;;
66669;SDS011;53568;52.164;4.472;2023-12-07T12:21:44;30.67;;;29.01;;
66669;SDS011;53568;52.164;4.472;2023-12-07T12:24:10;31.00;;;29.03;;
66669;SDS011;53568;52.164;4.472;2023-12-07T12:26:37;31.48;;;29.25;;
66669;SDS011;53568;52.164;4.472;2023-12-07T12:29:06;32.03;;;30.04;;
66669;SDS011;53568;52.164;4.472;2023-12-07T12:31:34;33.68;;;31.34;;
66669;SDS011;53568;52.164;4.472;2023-12-07T12:34:06;33.64;;;31.61;;
66669;SDS011;53568;52.164;4.472;2023-12-07T12:36:34;33.06;;;31.25;;
66669;SDS011;53568;52.164;4.472;2023-12-07T12:39:00;34.11;;;31.84;;
66669;SDS011;53568;52.164;4.472;2023-12-07T12:41:27;34.99;;;32.62;;
66669;SDS011;53568;52.164;4.472;2023-12-07T12:43:56;35.53;;;33.38;;
66669;SDS011;53568;52.164;4.472;2023-12-07T12:46:22;35.18;;;32.43;;
66669;SDS011;53568;52.164;4.472;2023-12-07T12:48:55;35.10;;;32.66;;
66669;SDS011;53568;52.164;4.472;2023-12-07T12:51:23;36.27;;;33.46;;
66669;SDS011;53568;52.164;4.472;2023-12-07T12:53:51;35.49;;;33.03;;
66669;SDS011;53568;52.164;4.472;2023-12-07T12:56:18;36.39;;;33.70;;
66669;SDS011;53568;52.164;4.472;2023-12-07T12:58:46;36.16;;;33.63;;
66669;SDS011;53568;52.164;4.472;2023-12-07T13:01:14;34.50;;;32.37;;
66669;SDS011;53568;52.164;4.472;2023-12-07T13:03:42;33.51;;;31.29;;
66669;SDS011;53568;52.164;4.472;2023-12-07T13:06:11;34.04;;;31.86;;
66669;SDS011;53568;52.164;4.472;2023-12-07T13:08:37;34.63;;;31.94;;
66669;SDS011;53568;52.164;4.472;2023-12-07T13:11:03;33.92;;;31.86;;
66669;SDS011;53568;52.164;4.472;2023-12-07T13:13:28;32.96;;;30.94;;
66669;SDS011;53568;52.164;4.472;2023-12-07T13:15:55;32.82;;;31.03;;
66669;SDS011;53568;52.164;4.472;2023-12-07T13:18:20;33.31;;;30.58;;
66669;SDS011;53568;52.164;4.472;2023-12-07T13:20:46;34.08;;;31.21;;
66669;SDS011;53568;52.164;4.472;2023-12-07T13:23:11;32.71;;;30.52;;
66669;SDS011;53568;52.164;4.472;2023-12-07T13:25:37;32.18;;;30.23;;
66669;SDS011;53568;52.164;4.472;2023-12-07T13:28:02;31.75;;;30.09;;
66669;SDS011;53568;52.164;4.472;2023-12-07T13:30:28;31.86;;;30.08;;
66669;SDS011;53568;52.164;4.472;2023-12-07T13:32:54;32.01;;;30.24;;
66669;SDS011;53568;52.164;4.472;2023-12-07T13:35:20;32.76;;;30.82;;
66669;SDS011;53568;52.164;4.472;2023-12-07T13:37:46;31.69;;;29.86;;
66669;SDS011;53568;52.164;4.472;2023-12-07T13:40:12;31.07;;;29.46;;
66669;SDS011;53568;52.164;4.472;2023-12-07T13:42:40;31.33;;;29.50;;
66669;SDS011;53568;52.164;4.472;2023-12-07T13:45:06;29.52;;;28.08;;
66669;SDS011;53568;52.164;4.472;2023-12-07T13:47:33;31.00;;;29.26;;
66669;SDS011;53568;52.164;4.472;2023-12-07T13:50:01;30.47;;;28.62;;
66669;SDS011;53568;52.164;4.472;2023-12-07T13:52:29;28.84;;;27.30;;
66669;SDS011;53568;52.164;4.472;2023-12-07T13:54:55;28.39;;;27.29;;
66669;SDS011;53568;52.164;4.472;2023-12-07T13:57:21;28.82;;;27.50;;
66669;SDS011;53568;52.164;4.472;2023-12-07T13:59:51;28.93;;;27.54;;
66669;SDS011;53568;52.164;4.472;2023-12-07T14:02:18;28.49;;;27.21;;
66669;SDS011;53568;52.164;4.472;2023-12-07T14:04:45;28.58;;;27.05;;
66669;SDS011;53568;52.164;4.472;2023-12-07T14:07:17;28.74;;;27.36;;
66669;SDS011;53568;52.164;4.472;2023-12-07T14:09:45;29.16;;;27.93;;
66669;SDS011;53568;52.164;4.472;2023-12-07T14:12:12;28.62;;;27.28;;
66669;SDS011;53568;52.164;4.472;2023-12-07T14:14:40;30.14;;;28.29;;
66669;SDS011;53568;52.164;4.472;2023-12-07T14:17:06;30.15;;;28.24;;
66669;SDS011;53568;52.164;4.472;2023-12-07T14:19:32;29.62;;;27.80;;
66669;SDS011;53568;52.164;4.472;2023-12-07T14:21:57;30.16;;;28.43;;